sensor_id;sensor_type;location;lat;lon;timestamp;temperature;humidity
46898;DHT22;32646;50.958;6.258;2024-01-11T00:02:25;-6.40;76.50
46898;DHT22;32646;50.958;6.258;2024-01-11T00:04:51;-6.40;75.80
46898;DHT22;32646;50.958;6.258;2024-01-11T00:07:18;-6.40;75.80
46898;DHT22;32646;50.958;6.258;2024-01-11T00:09:45;-6.30;76.50
46898;DHT22;32646;50.958;6.258;2024-01-11T00:12:11;-6.50;75.40
46898;DHT22;32646;50.958;6.258;2024-01-11T00:14:38;-6.50;75.70
46898;DHT22;32646;50.958;6.258;2024-01-11T00:17:05;-6.50;75.70
46898;DHT22;32646;50.958;6.258;2024-01-11T00:19:31;-6.50;75.50
46898;DHT22;32646;50.958;6.258;2024-01-11T00:21:58;-6.40;75.80
46898;DHT22;32646;50.958;6.258;2024-01-11T00:24:25;-6.40;75.30
46898;DHT22;32646;50.958;6.258;2024-01-11T00:26:51;-6.40;75.80
46898;DHT22;32646;50.958;6.258;2024-01-11T00:29:18;-6.40;76.20
46898;DHT22;32646;50.958;6.258;2024-01-11T00:31:44;-6.40;76.00
46898;DHT22;32646;50.958;6.258;2024-01-11T00:34:11;-6.50;74.90
46898;DHT22;32646;50.958;6.258;2024-01-11T00:36:38;-6.60;76.20
46898;DHT22;32646;50.958;6.258;2024-01-11T00:39:04;-6.50;78.00
46898;DHT22;32646;50.958;6.258;2024-01-11T00:41:31;-6.50;77.50
46898;DHT22;32646;50.958;6.258;2024-01-11T00:43:57;-6.40;77.90
46898;DHT22;32646;50.958;6.258;2024-01-11T00:46:24;-6.20;79.10
46898;DHT22;32646;50.958;6.258;2024-01-11T00:48:51;-6.30;77.10
46898;DHT22;32646;50.958;6.258;2024-01-11T00:51:22;-6.40;76.50
46898;DHT22;32646;50.958;6.258;2024-01-11T00:53:48;-6.50;77.20
46898;DHT22;32646;50.958;6.258;2024-01-11T00:56:16;-6.50;77.50
46898;DHT22;32646;50.958;6.258;2024-01-11T00:58:43;-6.40;77.90
46898;DHT22;32646;50.958;6.258;2024-01-11T01:01:09;-6.40;77.10
46898;DHT22;32646;50.958;6.258;2024-01-11T01:03:37;-6.40;77.80
46898;DHT22;32646;50.958;6.258;2024-01-11T01:06:04;-6.40;78.10
46898;DHT22;32646;50.958;6.258;2024-01-11T01:08:31;-6.40;78.90
46898;DHT22;32646;50.958;6.258;2024-01-11T01:10:58;-6.40;79.00
46898;DHT22;32646;50.958;6.258;2024-01-11T01:13:25;-6.30;79.00
46898;DHT22;32646;50.958;6.258;2024-01-11T01:15:51;-6.40;78.30
46898;DHT22;32646;50.958;6.258;2024-01-11T01:18:18;-6.30;79.90
46898;DHT22;32646;50.958;6.258;2024-01-11T01:20:45;-6.30;80.30
46898;DHT22;32646;50.958;6.258;2024-01-11T01:23:11;-6.20;80.20
46898;DHT22;32646;50.958;6.258;2024-01-11T01:25:38;-6.30;79.30
46898;DHT22;32646;50.958;6.258;2024-01-11T01:28:05;-6.40;79.70
46898;DHT22;32646;50.958;6.258;2024-01-11T01:30:31;-6.20;81.50
46898;DHT22;32646;50.958;6.258;2024-01-11T01:32:58;-6.20;79.70
46898;DHT22;32646;50.958;6.258;2024-01-11T01:35:25;-6.30;78.70
46898;DHT22;32646;50.958;6.258;2024-01-11T01:37:51;-6.30;78.90
46898;DHT22;32646;50.958;6.258;2024-01-11T01:40:18;-6.30;79.00
46898;DHT22;32646;50.958;6.258;2024-01-11T01:42:45;-6.40;77.70
46898;DHT22;32646;50.958;6.258;2024-01-11T01:45:12;-6.30;78.60
46898;DHT22;32646;50.958;6.258;2024-01-11T01:47:40;-6.40;78.20
46898;DHT22;32646;50.958;6.258;2024-01-11T01:50:10;-6.40;78.90
46898;DHT22;32646;50.958;6.258;2024-01-11T01:52:39;-6.40;77.90
46898;DHT22;32646;50.958;6.258;2024-01-11T01:55:09;-6.40;79.50
46898;DHT22;32646;50.958;6.258;2024-01-11T01:57:36;-6.50;79.00
46898;DHT22;32646;50.958;6.258;2024-01-11T02:00:05;-6.40;81.40
46898;DHT22;32646;50.958;6.258;2024-01-11T02:02:33;-6.30;83.00
46898;DHT22;32646;50.958;6.258;2024-01-11T02:05:01;-6.40;81.30
46898;DHT22;32646;50.958;6.258;2024-01-11T02:07:28;-6.50;80.70
46898;DHT22;32646;50.958;6.258;2024-01-11T02:09:55;-6.30;82.60
46898;DHT22;32646;50.958;6.258;2024-01-11T02:12:22;-6.10;83.10
46898;DHT22;32646;50.958;6.258;2024-01-11T02:14:50;-6.20;80.30
46898;DHT22;32646;50.958;6.258;2024-01-11T02:17:16;-6.30;78.60
46898;DHT22;32646;50.958;6.258;2024-01-11T02:19:43;-6.30;78.20
46898;DHT22;32646;50.958;6.258;2024-01-11T02:22:20;-6.40;78.30
46898;DHT22;32646;50.958;6.258;2024-01-11T02:24:48;-6.50;78.60
46898;DHT22;32646;50.958;6.258;2024-01-11T02:27:14;-6.50;79.30
46898;DHT22;32646;50.958;6.258;2024-01-11T02:29:41;-6.50;79.50
46898;DHT22;32646;50.958;6.258;2024-01-11T02:32:08;-6.50;79.30
46898;DHT22;32646;50.958;6.258;2024-01-11T02:34:35;-6.50;80.40
46898;DHT22;32646;50.958;6.258;2024-01-11T02:37:02;-6.50;81.20
46898;DHT22;32646;50.958;6.258;2024-01-11T02:39:29;-6.50;80.50
46898;DHT22;32646;50.958;6.258;2024-01-11T02:41:57;-6.50;80.20
46898;DHT22;32646;50.958;6.258;2024-01-11T02:44:24;-6.60;79.40
46898;DHT22;32646;50.958;6.258;2024-01-11T02:46:50;-6.70;79.80
46898;DHT22;32646;50.958;6.258;2024-01-11T02:49:17;-6.70;80.50
46898;DHT22;32646;50.958;6.258;2024-01-11T02:51:44;-6.60;80.60
46898;DHT22;32646;50.958;6.258;2024-01-11T02:54:11;-6.60;81.80
46898;DHT22;32646;50.958;6.258;2024-01-11T02:56:37;-6.70;81.00
46898;DHT22;32646;50.958;6.258;2024-01-11T02:59:04;-6.60;82.60
46898;DHT22;32646;50.958;6.258;2024-01-11T03:01:31;-6.50;84.00
46898;DHT22;32646;50.958;6.258;2024-01-11T03:03:59;-6.50;83.80
46898;DHT22;32646;50.958;6.258;2024-01-11T03:06:25;-6.50;83.10
46898;DHT22;32646;50.958;6.258;2024-01-11T03:08:52;-6.30;84.70
46898;DHT22;32646;50.958;6.258;2024-01-11T03:11:19;-6.40;83.00
46898;DHT22;32646;50.958;6.258;2024-01-11T03:13:45;-6.50;80.70
46898;DHT22;32646;50.958;6.258;2024-01-11T03:16:12;-6.50;82.10
46898;DHT22;32646;50.958;6.258;2024-01-11T03:18:39;-6.60;81.50
46898;DHT22;32646;50.958;6.258;2024-01-11T03:21:06;-6.60;81.80
46898;DHT22;32646;50.958;6.258;2024-01-11T03:23:32;-6.60;81.60
46898;DHT22;32646;50.958;6.258;2024-01-11T03:25:59;-6.60;82.00
46898;DHT22;32646;50.958;6.258;2024-01-11T03:28:26;-6.50;82.40
46898;DHT22;32646;50.958;6.258;2024-01-11T03:30:52;-6.40;83.80
46898;DHT22;32646;50.958;6.258;2024-01-11T03:33:19;-6.10;84.00
46898;DHT22;32646;50.958;6.258;2024-01-11T03:35:46;-6.10;82.10
46898;DHT22;32646;50.958;6.258;2024-01-11T03:38:12;-6.10;80.40
46898;DHT22;32646;50.958;6.258;2024-01-11T03:40:39;-6.30;78.70
46898;DHT22;32646;50.958;6.258;2024-01-11T03:43:06;-6.20;78.90
46898;DHT22;32646;50.958;6.258;2024-01-11T03:45:32;-6.40;78.20
46898;DHT22;32646;50.958;6.258;2024-01-11T03:47:59;-6.30;79.10
46898;DHT22;32646;50.958;6.258;2024-01-11T03:50:26;-6.30;78.50
46898;DHT22;32646;50.958;6.258;2024-01-11T03:52:52;-6.20;78.90
46898;DHT22;32646;50.958;6.258;2024-01-11T03:55:19;-6.10;78.60
46898;DHT22;32646;50.958;6.258;2024-01-11T03:57:46;-6.20;77.80
46898;DHT22;32646;50.958;6.258;2024-01-11T04:00:13;-6.20;77.00
46898;DHT22;32646;50.958;6.258;2024-01-11T04:02:39;-6.20;77.20
46898;DHT22;32646;50.958;6.258;2024-01-11T04:05:06;-6.30;77.50
46898;DHT22;32646;50.958;6.258;2024-01-11T04:07:33;-6.30;78.70
46898;DHT22;32646;50.958;6.258;2024-01-11T04:10:00;-6.30;81.20
46898;DHT22;32646;50.958;6.258;2024-01-11T04:12:26;-6.20;82.30
46898;DHT22;32646;50.958;6.258;2024-01-11T04:14:53;-6.20;82.60
46898;DHT22;32646;50.958;6.258;2024-01-11T04:17:19;-6.20;83.00
46898;DHT22;32646;50.958;6.258;2024-01-11T04:19:46;-6.20;83.70
46898;DHT22;32646;50.958;6.258;2024-01-11T04:22:13;-6.20;84.00
46898;DHT22;32646;50.958;6.258;2024-01-11T04:24:42;-6.30;84.60
46898;DHT22;32646;50.958;6.258;2024-01-11T04:27:09;-6.20;84.90
46898;DHT22;32646;50.958;6.258;2024-01-11T04:29:36;-6.20;85.30
46898;DHT22;32646;50.958;6.258;2024-01-11T04:32:02;-6.20;85.70
46898;DHT22;32646;50.958;6.258;2024-01-11T04:34:29;-6.20;85.80
46898;DHT22;32646;50.958;6.258;2024-01-11T04:36:56;-6.20;85.60
46898;DHT22;32646;50.958;6.258;2024-01-11T04:39:23;-6.20;86.40
46898;DHT22;32646;50.958;6.258;2024-01-11T04:41:49;-6.20;85.20
46898;DHT22;32646;50.958;6.258;2024-01-11T04:44:16;-6.20;84.90
46898;DHT22;32646;50.958;6.258;2024-01-11T04:46:43;-6.30;84.90
46898;DHT22;32646;50.958;6.258;2024-01-11T04:49:10;-6.30;84.60
46898;DHT22;32646;50.958;6.258;2024-01-11T04:51:37;-6.30;83.60
46898;DHT22;32646;50.958;6.258;2024-01-11T04:54:03;-6.40;83.60
46898;DHT22;32646;50.958;6.258;2024-01-11T04:56:30;-6.30;85.70
46898;DHT22;32646;50.958;6.258;2024-01-11T04:58:57;-6.30;85.90
46898;DHT22;32646;50.958;6.258;2024-01-11T05:01:23;-6.30;86.00
46898;DHT22;32646;50.958;6.258;2024-01-11T05:03:50;-6.30;85.90
46898;DHT22;32646;50.958;6.258;2024-01-11T05:06:21;-6.30;86.80
46898;DHT22;32646;50.958;6.258;2024-01-11T05:08:50;-6.20;87.30
46898;DHT22;32646;50.958;6.258;2024-01-11T05:11:21;-6.30;86.60
46898;DHT22;32646;50.958;6.258;2024-01-11T05:13:48;-6.20;87.20
46898;DHT22;32646;50.958;6.258;2024-01-11T05:16:20;-6.10;88.00
46898;DHT22;32646;50.958;6.258;2024-01-11T05:18:47;-6.00;89.00
46898;DHT22;32646;50.958;6.258;2024-01-11T05:21:13;-5.90;88.20
46898;DHT22;32646;50.958;6.258;2024-01-11T05:23:41;-5.90;86.80
46898;DHT22;32646;50.958;6.258;2024-01-11T05:26:08;-5.90;85.10
46898;DHT22;32646;50.958;6.258;2024-01-11T05:28:35;-5.90;84.10
46898;DHT22;32646;50.958;6.258;2024-01-11T05:31:02;-6.00;83.60
46898;DHT22;32646;50.958;6.258;2024-01-11T05:33:29;-6.00;82.80
46898;DHT22;32646;50.958;6.258;2024-01-11T05:35:56;-6.20;82.20
46898;DHT22;32646;50.958;6.258;2024-01-11T05:38:23;-6.20;82.50
46898;DHT22;32646;50.958;6.258;2024-01-11T05:40:49;-6.10;82.90
46898;DHT22;32646;50.958;6.258;2024-01-11T05:43:16;-6.10;82.50
46898;DHT22;32646;50.958;6.258;2024-01-11T05:45:42;-6.30;80.00
46898;DHT22;32646;50.958;6.258;2024-01-11T05:48:14;-6.30;79.90
46898;DHT22;32646;50.958;6.258;2024-01-11T05:50:42;-6.40;78.80
46898;DHT22;32646;50.958;6.258;2024-01-11T05:53:10;-6.40;81.10
46898;DHT22;32646;50.958;6.258;2024-01-11T05:55:36;-6.30;81.80
46898;DHT22;32646;50.958;6.258;2024-01-11T05:58:03;-6.30;80.80
46898;DHT22;32646;50.958;6.258;2024-01-11T06:00:30;-6.50;79.20
46898;DHT22;32646;50.958;6.258;2024-01-11T06:02:57;-6.50;78.80
46898;DHT22;32646;50.958;6.258;2024-01-11T06:05:23;-6.40;80.30
46898;DHT22;32646;50.958;6.258;2024-01-11T06:07:50;-6.60;77.30
46898;DHT22;32646;50.958;6.258;2024-01-11T06:10:17;-6.60;78.00
46898;DHT22;32646;50.958;6.258;2024-01-11T06:12:43;-6.70;78.10
46898;DHT22;32646;50.958;6.258;2024-01-11T06:15:10;-6.70;79.40
46898;DHT22;32646;50.958;6.258;2024-01-11T06:17:36;-6.80;79.20
46898;DHT22;32646;50.958;6.258;2024-01-11T06:20:04;-6.70;82.00
46898;DHT22;32646;50.958;6.258;2024-01-11T06:22:31;-6.50;82.80
46898;DHT22;32646;50.958;6.258;2024-01-11T06:24:57;-6.60;81.40
46898;DHT22;32646;50.958;6.258;2024-01-11T06:27:24;-6.70;81.10
46898;DHT22;32646;50.958;6.258;2024-01-11T06:29:50;-6.90;80.70
46898;DHT22;32646;50.958;6.258;2024-01-11T06:32:17;-7.00;80.60
46898;DHT22;32646;50.958;6.258;2024-01-11T06:34:43;-7.00;82.90
46898;DHT22;32646;50.958;6.258;2024-01-11T06:37:10;-6.80;86.10
46898;DHT22;32646;50.958;6.258;2024-01-11T06:39:37;-6.70;86.90
46898;DHT22;32646;50.958;6.258;2024-01-11T06:42:04;-6.80;85.60
46898;DHT22;32646;50.958;6.258;2024-01-11T06:44:30;-6.80;84.60
46898;DHT22;32646;50.958;6.258;2024-01-11T06:46:57;-6.70;84.00
46898;DHT22;32646;50.958;6.258;2024-01-11T06:49:23;-6.80;82.10
46898;DHT22;32646;50.958;6.258;2024-01-11T06:51:50;-6.90;80.40
46898;DHT22;32646;50.958;6.258;2024-01-11T06:54:17;-7.00;80.20
46898;DHT22;32646;50.958;6.258;2024-01-11T06:56:43;-7.10;79.50
46898;DHT22;32646;50.958;6.258;2024-01-11T06:59:10;-7.10;80.40
46898;DHT22;32646;50.958;6.258;2024-01-11T07:01:37;-7.20;80.50
46898;DHT22;32646;50.958;6.258;2024-01-11T07:04:03;-7.30;80.00
46898;DHT22;32646;50.958;6.258;2024-01-11T07:06:30;-7.20;81.20
46898;DHT22;32646;50.958;6.258;2024-01-11T07:08:57;-7.30;80.30
46898;DHT22;32646;50.958;6.258;2024-01-11T07:11:24;-7.30;81.30
46898;DHT22;32646;50.958;6.258;2024-01-11T07:13:51;-7.20;81.40
46898;DHT22;32646;50.958;6.258;2024-01-11T07:16:17;-7.20;81.50
46898;DHT22;32646;50.958;6.258;2024-01-11T07:18:44;-7.20;80.70
46898;DHT22;32646;50.958;6.258;2024-01-11T07:21:10;-6.90;81.70
46898;DHT22;32646;50.958;6.258;2024-01-11T07:23:37;-7.20;78.60
46898;DHT22;32646;50.958;6.258;2024-01-11T07:26:04;-7.30;78.80
46898;DHT22;32646;50.958;6.258;2024-01-11T07:28:30;-7.40;78.90
46898;DHT22;32646;50.958;6.258;2024-01-11T07:30:57;-7.30;79.80
46898;DHT22;32646;50.958;6.258;2024-01-11T07:33:24;-7.20;80.50
46898;DHT22;32646;50.958;6.258;2024-01-11T07:35:51;-7.00;80.70
46898;DHT22;32646;50.958;6.258;2024-01-11T07:38:17;-7.00;80.10
46898;DHT22;32646;50.958;6.258;2024-01-11T07:40:44;-6.70;81.10
46898;DHT22;32646;50.958;6.258;2024-01-11T07:43:11;-6.60;81.10
46898;DHT22;32646;50.958;6.258;2024-01-11T07:45:37;-6.40;81.20
46898;DHT22;32646;50.958;6.258;2024-01-11T07:48:04;-6.20;79.40
46898;DHT22;32646;50.958;6.258;2024-01-11T07:50:32;-6.70;71.90
46898;DHT22;32646;50.958;6.258;2024-01-11T07:52:58;-6.80;74.10
46898;DHT22;32646;50.958;6.258;2024-01-11T07:55:25;-6.90;76.70
46898;DHT22;32646;50.958;6.258;2024-01-11T07:57:52;-6.90;77.40
46898;DHT22;32646;50.958;6.258;2024-01-11T08:00:18;-7.00;78.20
46898;DHT22;32646;50.958;6.258;2024-01-11T08:02:45;-7.00;77.70
46898;DHT22;32646;50.958;6.258;2024-01-11T08:05:12;-7.00;78.70
46898;DHT22;32646;50.958;6.258;2024-01-11T08:07:38;-7.00;78.50
46898;DHT22;32646;50.958;6.258;2024-01-11T08:10:05;-7.00;79.40
46898;DHT22;32646;50.958;6.258;2024-01-11T08:12:32;-6.90;80.80
46898;DHT22;32646;50.958;6.258;2024-01-11T08:14:59;-6.80;82.00
46898;DHT22;32646;50.958;6.258;2024-01-11T08:17:26;-6.80;81.80
46898;DHT22;32646;50.958;6.258;2024-01-11T08:19:52;-6.70;82.60
46898;DHT22;32646;50.958;6.258;2024-01-11T08:22:19;-6.70;82.30
46898;DHT22;32646;50.958;6.258;2024-01-11T08:24:51;-6.80;82.30
46898;DHT22;32646;50.958;6.258;2024-01-11T08:27:18;-6.70;83.20
46898;DHT22;32646;50.958;6.258;2024-01-11T08:29:44;-6.70;83.50
46898;DHT22;32646;50.958;6.258;2024-01-11T08:32:11;-6.60;84.70
46898;DHT22;32646;50.958;6.258;2024-01-11T08:34:53;-6.60;84.20
46898;DHT22;32646;50.958;6.258;2024-01-11T08:37:20;-6.30;85.50
46898;DHT22;32646;50.958;6.258;2024-01-11T08:39:47;-6.20;84.30
46898;DHT22;32646;50.958;6.258;2024-01-11T08:42:13;-5.90;83.50
46898;DHT22;32646;50.958;6.258;2024-01-11T08:44:43;-5.90;82.30
46898;DHT22;32646;50.958;6.258;2024-01-11T08:47:10;-5.90;81.30
46898;DHT22;32646;50.958;6.258;2024-01-11T08:49:38;-5.80;81.30
46898;DHT22;32646;50.958;6.258;2024-01-11T08:52:05;-5.70;81.20
46898;DHT22;32646;50.958;6.258;2024-01-11T08:54:33;-5.70;81.80
46898;DHT22;32646;50.958;6.258;2024-01-11T08:57:00;-5.60;82.90
46898;DHT22;32646;50.958;6.258;2024-01-11T08:59:27;-5.40;83.70
46898;DHT22;32646;50.958;6.258;2024-01-11T09:01:54;-5.30;83.80
46898;DHT22;32646;50.958;6.258;2024-01-11T09:04:36;-5.20;82.70
46898;DHT22;32646;50.958;6.258;2024-01-11T09:07:03;-4.90;83.30
46898;DHT22;32646;50.958;6.258;2024-01-11T09:09:30;-4.80;81.20
46898;DHT22;32646;50.958;6.258;2024-01-11T09:12:00;-4.70;78.10
46898;DHT22;32646;50.958;6.258;2024-01-11T09:14:26;-4.70;77.20
46898;DHT22;32646;50.958;6.258;2024-01-11T09:16:53;-4.60;77.30
46898;DHT22;32646;50.958;6.258;2024-01-11T09:19:20;-4.40;76.90
46898;DHT22;32646;50.958;6.258;2024-01-11T09:21:46;-4.40;75.30
46898;DHT22;32646;50.958;6.258;2024-01-11T09:24:13;-4.10;74.90
46898;DHT22;32646;50.958;6.258;2024-01-11T09:26:40;-4.00;71.20
46898;DHT22;32646;50.958;6.258;2024-01-11T09:29:06;-3.70;70.10
46898;DHT22;32646;50.958;6.258;2024-01-11T09:31:33;-3.60;67.70
46898;DHT22;32646;50.958;6.258;2024-01-11T09:34:00;-3.70;63.70
46898;DHT22;32646;50.958;6.258;2024-01-11T09:36:26;-3.60;63.50
46898;DHT22;32646;50.958;6.258;2024-01-11T09:38:53;-3.50;60.30
46898;DHT22;32646;50.958;6.258;2024-01-11T09:41:20;-3.30;60.50
46898;DHT22;32646;50.958;6.258;2024-01-11T09:43:50;-3.40;60.00
46898;DHT22;32646;50.958;6.258;2024-01-11T09:46:20;-3.10;59.80
46898;DHT22;32646;50.958;6.258;2024-01-11T09:48:47;-2.90;58.90
46898;DHT22;32646;50.958;6.258;2024-01-11T09:51:16;-2.60;56.10
46898;DHT22;32646;50.958;6.258;2024-01-11T09:53:43;-2.70;51.00
46898;DHT22;32646;50.958;6.258;2024-01-11T09:56:10;-2.30;48.30
46898;DHT22;32646;50.958;6.258;2024-01-11T09:58:38;-2.20;46.90
46898;DHT22;32646;50.958;6.258;2024-01-11T10:01:09;-2.20;46.20
46898;DHT22;32646;50.958;6.258;2024-01-11T10:03:36;-2.20;42.40
46898;DHT22;32646;50.958;6.258;2024-01-11T10:06:03;-2.40;43.10
46898;DHT22;32646;50.958;6.258;2024-01-11T10:08:31;-2.30;46.50
46898;DHT22;32646;50.958;6.258;2024-01-11T10:10:58;-2.10;45.80
46898;DHT22;32646;50.958;6.258;2024-01-11T10:13:28;-2.10;42.00
46898;DHT22;32646;50.958;6.258;2024-01-11T10:16:08;-2.10;41.20
46898;DHT22;32646;50.958;6.258;2024-01-11T10:18:36;-1.20;44.20
46898;DHT22;32646;50.958;6.258;2024-01-11T10:21:03;1.30;24.60
46898;DHT22;32646;50.958;6.258;2024-01-11T10:23:33;3.00;16.80
46898;DHT22;32646;50.958;6.258;2024-01-11T10:26:00;2.90;12.00
46898;DHT22;32646;50.958;6.258;2024-01-11T10:28:27;3.80;10.00
46898;DHT22;32646;50.958;6.258;2024-01-11T10:30:54;2.40;8.80
46898;DHT22;32646;50.958;6.258;2024-01-11T10:33:22;2.10;10.60
46898;DHT22;32646;50.958;6.258;2024-01-11T10:35:49;2.30;11.30
46898;DHT22;32646;50.958;6.258;2024-01-11T10:38:16;1.50;11.60
46898;DHT22;32646;50.958;6.258;2024-01-11T10:40:43;0.80;17.20
46898;DHT22;32646;50.958;6.258;2024-01-11T10:43:11;0.40;20.10
46898;DHT22;32646;50.958;6.258;2024-01-11T10:45:38;0.30;22.20
46898;DHT22;32646;50.958;6.258;2024-01-11T10:48:14;0.10;22.60
46898;DHT22;32646;50.958;6.258;2024-01-11T10:50:45;0.00;24.30
46898;DHT22;32646;50.958;6.258;2024-01-11T10:53:46;0.00;27.60
46898;DHT22;32646;50.958;6.258;2024-01-11T10:56:16;0.10;26.80
46898;DHT22;32646;50.958;6.258;2024-01-11T10:58:44;-0.10;26.30
46898;DHT22;32646;50.958;6.258;2024-01-11T11:01:11;-0.20;25.00
46898;DHT22;32646;50.958;6.258;2024-01-11T11:03:39;-0.40;27.80
46898;DHT22;32646;50.958;6.258;2024-01-11T11:06:07;-0.40;29.20
46898;DHT22;32646;50.958;6.258;2024-01-11T11:08:36;-0.50;29.80
46898;DHT22;32646;50.958;6.258;2024-01-11T11:11:04;-0.50;29.90
46898;DHT22;32646;50.958;6.258;2024-01-11T11:13:31;-0.60;28.80
46898;DHT22;32646;50.958;6.258;2024-01-11T11:15:58;-0.60;29.10
46898;DHT22;32646;50.958;6.258;2024-01-11T11:18:28;-0.40;32.90
46898;DHT22;32646;50.958;6.258;2024-01-11T11:20:54;-0.40;30.00
46898;DHT22;32646;50.958;6.258;2024-01-11T11:23:21;-0.30;29.80
46898;DHT22;32646;50.958;6.258;2024-01-11T11:25:48;-0.20;30.80
46898;DHT22;32646;50.958;6.258;2024-01-11T11:28:16;-0.10;29.80
46898;DHT22;32646;50.958;6.258;2024-01-11T11:30:48;-0.20;31.30
46898;DHT22;32646;50.958;6.258;2024-01-11T11:33:23;0.00;29.00
46898;DHT22;32646;50.958;6.258;2024-01-11T11:35:54;0.00;31.00
46898;DHT22;32646;50.958;6.258;2024-01-11T11:38:27;0.10;29.30
46898;DHT22;32646;50.958;6.258;2024-01-11T11:40:56;0.20;29.30
46898;DHT22;32646;50.958;6.258;2024-01-11T11:43:23;0.40;29.80
46898;DHT22;32646;50.958;6.258;2024-01-11T11:45:51;0.30;28.00
46898;DHT22;32646;50.958;6.258;2024-01-11T11:51:10;0.50;26.30
46898;DHT22;32646;50.958;6.258;2024-01-11T11:53:38;0.40;26.30
46898;DHT22;32646;50.958;6.258;2024-01-11T11:56:07;0.50;25.60
46898;DHT22;32646;50.958;6.258;2024-01-11T11:58:34;0.60;26.20
46898;DHT22;32646;50.958;6.258;2024-01-11T12:01:02;0.40;25.30
46898;DHT22;32646;50.958;6.258;2024-01-11T12:03:34;0.40;23.10
46898;DHT22;32646;50.958;6.258;2024-01-11T12:06:01;0.40;23.90
46898;DHT22;32646;50.958;6.258;2024-01-11T12:08:28;0.50;25.10
46898;DHT22;32646;50.958;6.258;2024-01-11T12:10:55;0.50;26.50
46898;DHT22;32646;50.958;6.258;2024-01-11T12:13:22;0.60;25.10
46898;DHT22;32646;50.958;6.258;2024-01-11T12:15:49;0.60;25.80
46898;DHT22;32646;50.958;6.258;2024-01-11T12:18:15;0.60;24.50
46898;DHT22;32646;50.958;6.258;2024-01-11T12:20:42;0.50;23.10
46898;DHT22;32646;50.958;6.258;2024-01-11T12:23:09;0.70;24.90
46898;DHT22;32646;50.958;6.258;2024-01-11T12:25:36;0.90;23.90
46898;DHT22;32646;50.958;6.258;2024-01-11T12:28:03;1.00;24.30
46898;DHT22;32646;50.958;6.258;2024-01-11T12:30:32;1.20;22.70
46898;DHT22;32646;50.958;6.258;2024-01-11T12:32:59;1.10;20.30
46898;DHT22;32646;50.958;6.258;2024-01-11T12:35:26;1.20;23.80
46898;DHT22;32646;50.958;6.258;2024-01-11T12:38:01;1.30;23.40
46898;DHT22;32646;50.958;6.258;2024-01-11T12:40:28;1.20;26.00
46898;DHT22;32646;50.958;6.258;2024-01-11T12:42:56;1.00;25.30
46898;DHT22;32646;50.958;6.258;2024-01-11T12:45:24;1.20;26.60
46898;DHT22;32646;50.958;6.258;2024-01-11T12:47:51;1.00;26.80
46898;DHT22;32646;50.958;6.258;2024-01-11T12:50:18;1.10;26.50
46898;DHT22;32646;50.958;6.258;2024-01-11T12:52:44;1.00;26.10
46898;DHT22;32646;50.958;6.258;2024-01-11T12:55:18;1.00;26.20
46898;DHT22;32646;50.958;6.258;2024-01-11T12:57:45;1.40;26.00
46898;DHT22;32646;50.958;6.258;2024-01-11T13:00:15;1.40;22.50
46898;DHT22;32646;50.958;6.258;2024-01-11T13:02:42;1.30;22.00
46898;DHT22;32646;50.958;6.258;2024-01-11T13:05:09;1.30;22.50
46898;DHT22;32646;50.958;6.258;2024-01-11T13:07:38;1.00;24.60
46898;DHT22;32646;50.958;6.258;2024-01-11T13:10:05;0.90;25.40
46898;DHT22;32646;50.958;6.258;2024-01-11T13:12:32;0.80;24.80
46898;DHT22;32646;50.958;6.258;2024-01-11T13:14:58;0.80;25.90
46898;DHT22;32646;50.958;6.258;2024-01-11T13:17:25;0.90;25.10
46898;DHT22;32646;50.958;6.258;2024-01-11T13:19:52;1.10;25.90
46898;DHT22;32646;50.958;6.258;2024-01-11T13:22:18;1.10;23.40
46898;DHT22;32646;50.958;6.258;2024-01-11T13:24:45;1.10;26.40
46898;DHT22;32646;50.958;6.258;2024-01-11T13:27:11;1.20;24.60
46898;DHT22;32646;50.958;6.258;2024-01-11T13:29:38;1.10;24.70
46898;DHT22;32646;50.958;6.258;2024-01-11T13:32:05;1.30;25.80
46898;DHT22;32646;50.958;6.258;2024-01-11T13:34:32;1.30;25.70
46898;DHT22;32646;50.958;6.258;2024-01-11T13:36:58;1.40;25.20
46898;DHT22;32646;50.958;6.258;2024-01-11T13:39:25;1.50;26.10
46898;DHT22;32646;50.958;6.258;2024-01-11T13:41:52;1.40;24.50
46898;DHT22;32646;50.958;6.258;2024-01-11T13:44:18;1.30;25.30
46898;DHT22;32646;50.958;6.258;2024-01-11T13:46:48;1.30;26.10
46898;DHT22;32646;50.958;6.258;2024-01-11T13:49:15;1.30;25.30
46898;DHT22;32646;50.958;6.258;2024-01-11T13:51:41;1.40;26.40
46898;DHT22;32646;50.958;6.258;2024-01-11T13:54:22;1.50;26.10
46898;DHT22;32646;50.958;6.258;2024-01-11T13:56:50;1.60;24.70
46898;DHT22;32646;50.958;6.258;2024-01-11T13:59:17;1.70;24.20
46898;DHT22;32646;50.958;6.258;2024-01-11T14:01:44;1.70;24.10
46898;DHT22;32646;50.958;6.258;2024-01-11T14:04:10;1.70;22.20
46898;DHT22;32646;50.958;6.258;2024-01-11T14:06:37;1.80;17.80
46898;DHT22;32646;50.958;6.258;2024-01-11T14:09:03;1.70;15.70
46898;DHT22;32646;50.958;6.258;2024-01-11T14:11:30;1.80;15.90
46898;DHT22;32646;50.958;6.258;2024-01-11T14:13:57;1.80;16.30
46898;DHT22;32646;50.958;6.258;2024-01-11T14:16:24;1.80;18.00
46898;DHT22;32646;50.958;6.258;2024-01-11T14:18:52;1.70;18.60
46898;DHT22;32646;50.958;6.258;2024-01-11T14:21:19;1.60;16.80
46898;DHT22;32646;50.958;6.258;2024-01-11T14:23:46;1.40;16.70
46898;DHT22;32646;50.958;6.258;2024-01-11T14:26:13;1.30;15.90
46898;DHT22;32646;50.958;6.258;2024-01-11T14:28:39;1.30;16.30
46898;DHT22;32646;50.958;6.258;2024-01-11T14:31:06;1.20;16.40
46898;DHT22;32646;50.958;6.258;2024-01-11T14:33:32;1.20;16.80
46898;DHT22;32646;50.958;6.258;2024-01-11T14:35:59;1.10;16.20
46898;DHT22;32646;50.958;6.258;2024-01-11T14:38:26;1.10;17.50
46898;DHT22;32646;50.958;6.258;2024-01-11T14:40:52;1.00;17.80
46898;DHT22;32646;50.958;6.258;2024-01-11T14:43:19;1.00;18.20
46898;DHT22;32646;50.958;6.258;2024-01-11T14:45:46;1.00;18.80
46898;DHT22;32646;50.958;6.258;2024-01-11T14:48:12;0.90;17.60
46898;DHT22;32646;50.958;6.258;2024-01-11T14:50:39;0.80;18.20
46898;DHT22;32646;50.958;6.258;2024-01-11T14:53:06;0.70;18.60
46898;DHT22;32646;50.958;6.258;2024-01-11T14:55:35;0.60;19.00
46898;DHT22;32646;50.958;6.258;2024-01-11T14:58:02;0.50;20.30
46898;DHT22;32646;50.958;6.258;2024-01-11T15:00:28;0.40;21.80
46898;DHT22;32646;50.958;6.258;2024-01-11T15:02:55;0.40;22.50
46898;DHT22;32646;50.958;6.258;2024-01-11T15:05:22;0.30;23.20
46898;DHT22;32646;50.958;6.258;2024-01-11T15:07:48;0.30;23.80
46898;DHT22;32646;50.958;6.258;2024-01-11T15:10:15;0.20;24.10
46898;DHT22;32646;50.958;6.258;2024-01-11T15:12:42;0.10;25.10
46898;DHT22;32646;50.958;6.258;2024-01-11T15:15:08;0.10;25.20
46898;DHT22;32646;50.958;6.258;2024-01-11T15:17:35;0.00;25.60
46898;DHT22;32646;50.958;6.258;2024-01-11T15:20:02;-0.10;26.10
46898;DHT22;32646;50.958;6.258;2024-01-11T15:22:29;-0.20;26.90
46898;DHT22;32646;50.958;6.258;2024-01-11T15:24:56;-0.30;27.50
46898;DHT22;32646;50.958;6.258;2024-01-11T15:27:22;-0.30;29.00
46898;DHT22;32646;50.958;6.258;2024-01-11T15:29:49;-0.40;29.40
46898;DHT22;32646;50.958;6.258;2024-01-11T15:32:16;-0.30;29.30
46898;DHT22;32646;50.958;6.258;2024-01-11T15:34:43;-0.40;29.20
46898;DHT22;32646;50.958;6.258;2024-01-11T15:37:09;-0.50;30.00
46898;DHT22;32646;50.958;6.258;2024-01-11T15:39:36;-0.60;30.70